createdAt,value
2023-02-01T00:01:21.325Z,3.40
2023-02-01T00:03:48.140Z,3.90
2023-02-01T00:06:15.040Z,3.70
2023-02-01T00:08:41.893Z,3.80
2023-02-01T00:11:11.795Z,3.53
2023-02-01T00:13:41.274Z,4.28
2023-02-01T00:16:17.140Z,3.78
2023-02-01T00:18:45.221Z,3.75
2023-02-01T00:21:13.262Z,3.88
2023-02-01T00:23:40.204Z,3.72
2023-02-01T00:26:12.236Z,4.70
2023-02-01T00:28:39.327Z,4.10
2023-02-01T00:31:06.277Z,4.25
2023-02-01T00:33:34.180Z,4.15
2023-02-01T00:36:03.398Z,4.85
2023-02-01T00:38:30.895Z,5.15
2023-02-01T00:41:05.585Z,5.53
2023-02-01T00:43:33.548Z,4.53
2023-02-01T00:46:00.796Z,5.85
2023-02-01T00:48:27.625Z,4.40
2023-02-01T00:50:54.568Z,5.28
2023-02-01T00:53:21.333Z,5.47
2023-02-01T00:55:49.007Z,6.25
2023-02-01T00:58:16.367Z,4.65
2023-02-01T01:03:18.934Z,4.80
2023-02-01T01:05:47.182Z,5.00
2023-02-01T01:08:15.406Z,4.53
2023-02-01T01:10:42.481Z,3.85
2023-02-01T01:15:40.974Z,5.10
2023-02-01T01:18:08.791Z,5.10
2023-02-01T01:20:37.467Z,4.53
2023-02-01T01:23:04.549Z,5.28
2023-02-01T01:25:31.880Z,5.50
2023-02-01T01:27:59.419Z,5.20
2023-02-01T01:30:26.174Z,5.70
2023-02-01T01:32:53.437Z,5.15
2023-02-01T01:35:20.232Z,6.05
2023-02-01T01:37:46.966Z,6.47
2023-02-01T01:40:14.066Z,6.88
2023-02-01T01:42:43.201Z,6.07
2023-02-01T01:45:25.648Z,6.75
2023-02-01T01:48:02.727Z,6.05
2023-02-01T01:51:06.051Z,7.15
2023-02-01T01:53:38.576Z,6.75
2023-02-01T01:56:05.752Z,6.15
2023-02-01T01:58:35.191Z,7.15
2023-02-01T02:01:02.031Z,7.03
2023-02-01T02:03:35.090Z,7.18
2023-02-01T02:06:04.842Z,7.45
2023-02-01T02:08:31.919Z,5.97
2023-02-01T02:13:39.469Z,7.43
2023-02-01T02:16:30.840Z,7.43
2023-02-01T02:19:05.368Z,7.00
2023-02-01T02:21:47.717Z,6.72
2023-02-01T02:24:27.163Z,6.93
2023-02-01T02:27:26.015Z,7.55
2023-02-01T02:30:13.361Z,8.45
2023-02-01T02:33:18.169Z,8.00
2023-02-01T02:35:51.593Z,7.68
2023-02-01T02:38:26.477Z,7.78
2023-02-01T02:40:59.119Z,6.72
2023-02-01T02:44:10.901Z,8.45
2023-02-01T02:47:00.157Z,7.93
2023-02-01T02:49:41.990Z,7.80
2023-02-01T02:52:38.224Z,6.55
2023-02-01T02:55:09.682Z,7.50
2023-02-01T02:58:02.285Z,5.95
2023-02-01T03:00:51.548Z,5.60
2023-02-01T03:03:36.954Z,5.05
2023-02-01T03:06:04.907Z,5.93
2023-02-01T03:08:32.338Z,5.35
2023-02-01T03:11:07.866Z,6.38
2023-02-01T03:13:47.500Z,5.10
2023-02-01T03:16:28.322Z,6.05
2023-02-01T03:19:07.303Z,6.78
2023-02-01T03:24:39.981Z,7.32
2023-02-01T03:27:19.545Z,7.22
2023-02-01T03:30:07.159Z,5.65
2023-02-01T03:32:56.365Z,6.47
2023-02-01T03:35:45.797Z,6.78
2023-02-01T03:38:28.608Z,5.55
2023-02-01T03:41:29.493Z,5.93
2023-02-01T03:44:16.664Z,7.25
2023-02-01T03:46:55.198Z,10.05
2023-02-01T03:49:30.342Z,8.27
2023-02-01T03:52:00.683Z,6.80
2023-02-01T03:54:29.332Z,8.93
2023-02-01T03:57:00.526Z,7.38
2023-02-01T03:59:27.327Z,7.05
2023-02-01T04:01:54.098Z,6.97
2023-02-01T04:04:21.093Z,8.80
2023-02-01T04:06:52.181Z,8.57
2023-02-01T04:09:19.784Z,7.40
2023-02-01T04:11:46.569Z,7.47
2023-02-01T04:14:13.360Z,7.43
2023-02-01T04:16:40.197Z,8.90
2023-02-01T04:19:06.955Z,7.80
2023-02-01T04:21:33.725Z,7.50
2023-02-01T04:24:00.418Z,8.32
2023-02-01T04:26:27.372Z,6.93
2023-02-01T04:28:54.360Z,7.28
2023-02-01T04:31:26.619Z,7.15
2023-02-01T04:33:54.710Z,6.38
2023-02-01T04:36:23.081Z,9.30
2023-02-01T04:38:50.634Z,6.50
2023-02-01T04:41:20.142Z,5.70
2023-02-01T04:43:47.949Z,6.78
2023-02-01T04:46:14.867Z,6.30
2023-02-01T04:48:42.390Z,5.70
2023-02-01T04:51:10.839Z,5.45
2023-02-01T04:53:38.033Z,5.38
2023-02-01T04:58:31.765Z,7.32
2023-02-01T05:00:58.640Z,5.95
2023-02-01T05:03:25.449Z,5.53
2023-02-01T05:05:54.477Z,5.60
2023-02-01T05:08:23.350Z,4.45
2023-02-01T05:10:50.281Z,5.22
2023-02-01T05:13:35.572Z,5.13
2023-02-01T05:16:02.675Z,5.80
2023-02-01T05:18:29.465Z,4.15
2023-02-01T05:20:57.672Z,4.30
2023-02-01T05:23:24.580Z,4.25
2023-02-01T05:25:51.281Z,4.47
2023-02-01T05:28:17.983Z,3.70
2023-02-01T05:30:44.857Z,3.85
2023-02-01T05:33:11.617Z,3.78
2023-02-01T05:35:38.373Z,4.40
2023-02-01T05:38:05.132Z,4.03
2023-02-01T05:40:31.930Z,4.18
2023-02-01T05:42:58.625Z,3.92
2023-02-01T05:45:25.326Z,3.25
2023-02-01T05:47:52.096Z,4.10
2023-02-01T05:50:19.307Z,3.33
2023-02-01T05:52:46.284Z,3.80
2023-02-01T05:55:13.037Z,3.45
2023-02-01T05:57:39.749Z,3.35
2023-02-01T06:00:07.312Z,4.05
2023-02-01T06:02:39.457Z,3.03
2023-02-01T06:05:06.840Z,2.83
2023-02-01T06:07:33.665Z,2.88
2023-02-01T06:10:00.496Z,2.85
2023-02-01T06:12:29.014Z,2.47
2023-02-01T06:14:55.739Z,3.25
2023-02-01T06:17:22.483Z,2.42
2023-02-01T06:19:49.492Z,2.55
2023-02-01T06:24:43.776Z,2.20
2023-02-01T06:27:10.581Z,1.85
2023-02-01T06:29:37.380Z,1.77
2023-02-01T06:32:04.257Z,2.00
2023-02-01T06:34:31.031Z,1.90
2023-02-01T06:36:57.744Z,2.17
2023-02-01T06:39:24.612Z,2.25
2023-02-01T06:41:51.557Z,2.17
2023-02-01T06:46:45.168Z,2.10
2023-02-01T06:49:11.935Z,2.55
2023-02-01T06:51:38.821Z,2.85
2023-02-01T06:54:05.629Z,2.65
2023-02-01T06:56:32.473Z,2.63
2023-02-01T06:58:59.417Z,2.67
2023-02-01T07:01:26.198Z,2.67
2023-02-01T07:03:53.151Z,2.25
2023-02-01T07:06:22.679Z,4.07
2023-02-01T07:08:49.775Z,3.15
2023-02-01T07:11:18.242Z,3.67
2023-02-01T07:13:45.695Z,2.50
2023-02-01T07:16:15.566Z,2.60
2023-02-01T07:18:43.654Z,2.80
2023-02-01T07:21:10.519Z,2.45
2023-02-01T07:23:37.938Z,2.97
2023-02-01T07:26:07.141Z,2.10
2023-02-01T07:28:36.512Z,2.42
2023-02-01T07:31:08.690Z,3.20
2023-02-01T07:33:35.763Z,2.10
2023-02-01T07:38:33.027Z,2.88
2023-02-01T07:41:01.326Z,2.38
2023-02-01T07:43:29.477Z,2.45
2023-02-01T07:45:56.737Z,2.78
2023-02-01T07:48:24.525Z,2.65
2023-02-01T07:51:04.678Z,2.92
2023-02-01T07:53:33.031Z,3.90
2023-02-01T07:55:59.997Z,3.28
2023-02-01T07:58:27.302Z,5.97
2023-02-01T08:01:13.258Z,4.13
2023-02-01T08:03:40.083Z,3.47
2023-02-01T08:06:07.659Z,3.88
2023-02-01T08:08:34.665Z,3.58
2023-02-01T08:11:03.430Z,2.55
2023-02-01T08:13:30.376Z,2.92
2023-02-01T08:16:01.384Z,2.80
2023-02-01T08:18:28.751Z,2.58
2023-02-01T08:20:55.753Z,3.28
2023-02-01T08:23:23.873Z,3.35
2023-02-01T08:25:50.682Z,3.90
2023-02-01T08:28:17.653Z,3.10
2023-02-01T08:33:11.720Z,3.53
2023-02-01T08:35:43.878Z,3.00
2023-02-01T08:38:11.463Z,3.10
2023-02-01T08:40:38.190Z,3.35
2023-02-01T08:43:05.046Z,2.55
2023-02-01T08:45:31.757Z,3.00
2023-02-01T08:47:58.606Z,3.65
2023-02-01T08:50:26.823Z,3.53
2023-02-01T08:52:54.032Z,2.95
2023-02-01T08:55:21.511Z,3.83
2023-02-01T08:57:49.002Z,3.05
2023-02-01T09:00:18.010Z,2.85
2023-02-01T09:02:45.110Z,2.83
2023-02-01T09:05:12.384Z,3.63
2023-02-01T09:07:39.159Z,3.47
2023-02-01T09:10:06.782Z,4.15
2023-02-01T09:12:35.082Z,4.38
2023-02-01T09:15:02.562Z,3.65
2023-02-01T09:17:30.439Z,4.20
2023-02-01T09:19:57.494Z,2.90
2023-02-01T09:22:24.768Z,3.67
2023-02-01T09:24:55.130Z,2.35
2023-02-01T09:27:22.949Z,3.70
2023-02-01T09:29:53.210Z,3.05
2023-02-01T09:32:24.071Z,3.20
2023-02-01T09:34:52.570Z,3.80
2023-02-01T09:37:19.897Z,2.72
2023-02-01T09:39:46.800Z,3.72
2023-02-01T09:45:09.938Z,2.78
2023-02-01T09:47:44.057Z,3.22
2023-02-01T09:50:36.219Z,2.50
2023-02-01T09:53:07.786Z,3.17
2023-02-01T09:55:43.580Z,2.53
2023-02-01T09:58:23.273Z,3.88
2023-02-01T10:00:56.496Z,4.15
2023-02-01T10:03:27.460Z,2.80
2023-02-01T10:06:34.195Z,2.80
2023-02-01T10:09:14.483Z,3.03
2023-02-01T10:12:01.947Z,2.35
2023-02-01T10:14:54.919Z,2.80
2023-02-01T10:17:21.600Z,3.50
2023-02-01T10:20:02.665Z,3.80
2023-02-01T10:23:10.650Z,3.08
2023-02-01T10:25:45.313Z,2.75
2023-02-01T10:28:17.596Z,2.92
2023-02-01T10:30:47.643Z,2.97
2023-02-01T10:33:26.113Z,3.88
2023-02-01T10:36:11.903Z,2.90
2023-02-01T10:38:38.813Z,2.45
2023-02-01T10:43:40.144Z,2.13
2023-02-01T10:46:08.317Z,3.33
2023-02-01T10:48:35.971Z,2.63
2023-02-01T10:51:15.220Z,3.28
2023-02-01T10:53:51.333Z,2.75
2023-02-01T10:56:29.226Z,2.47
2023-02-01T10:59:05.226Z,2.72
2023-02-01T11:01:36.431Z,2.53
2023-02-01T11:04:05.260Z,3.55
2023-02-01T11:06:34.598Z,3.30
2023-02-01T11:09:09.069Z,1.90
2023-02-01T11:11:48.185Z,2.88
2023-02-01T11:14:19.919Z,3.75
2023-02-01T11:16:54.689Z,3.03
2023-02-01T11:19:21.721Z,3.13
2023-02-01T11:24:25.037Z,3.55
2023-02-01T11:26:55.249Z,4.03
2023-02-01T11:29:29.499Z,2.80
2023-02-01T11:32:00.464Z,3.03
2023-02-01T11:34:37.218Z,2.20
2023-02-01T11:37:05.281Z,2.90
2023-02-01T11:39:35.025Z,3.22
2023-02-01T11:42:15.584Z,2.80
2023-02-01T11:44:45.144Z,2.70
2023-02-01T11:47:39.172Z,3.58
2023-02-01T11:50:19.183Z,2.92
2023-02-01T11:53:08.622Z,2.92
2023-02-01T11:55:54.023Z,3.47
2023-02-01T11:58:50.170Z,2.88
2023-02-01T12:01:32.134Z,3.28
2023-02-01T12:04:15.142Z,3.05
2023-02-01T12:06:55.260Z,3.25
2023-02-01T12:09:49.651Z,4.03
2023-02-01T12:12:40.855Z,2.97
2023-02-01T12:15:16.119Z,2.10
2023-02-01T12:18:15.211Z,2.10
2023-02-01T12:21:00.127Z,4.43
2023-02-01T12:23:51.053Z,3.92
2023-02-01T12:26:36.542Z,2.70
2023-02-01T12:29:51.216Z,3.60
2023-02-01T12:32:37.712Z,2.90
2023-02-01T12:35:29.334Z,2.97
2023-02-01T12:38:07.604Z,3.45
2023-02-01T12:40:55.851Z,2.50
2023-02-01T12:46:28.888Z,2.35
2023-02-01T12:49:01.361Z,2.38
2023-02-01T12:51:32.887Z,3.60
2023-02-01T12:54:05.886Z,2.78
2023-02-01T12:56:36.195Z,2.83
2023-02-01T12:59:09.569Z,2.88
2023-02-01T13:01:49.673Z,3.35
2023-02-01T13:04:29.446Z,2.50
2023-02-01T13:07:19.234Z,3.05
2023-02-01T13:10:00.243Z,2.53
2023-02-01T13:12:36.124Z,2.17
2023-02-01T13:15:54.336Z,4.40
2023-02-01T13:18:24.381Z,2.45
2023-02-01T13:20:58.436Z,2.85
2023-02-01T13:23:32.785Z,3.22
2023-02-01T13:26:00.063Z,1.90
2023-02-01T13:28:47.129Z,2.13
2023-02-01T13:31:53.695Z,2.40
2023-02-01T13:34:29.359Z,3.00
2023-02-01T13:37:33.823Z,2.38
2023-02-01T13:40:19.520Z,2.60
2023-02-01T13:42:54.150Z,2.40
2023-02-01T13:45:24.842Z,2.88
2023-02-01T13:47:55.792Z,2.67
2023-02-01T13:50:43.163Z,2.90
2023-02-01T13:53:12.853Z,2.72
2023-02-01T13:55:42.225Z,2.45
2023-02-01T13:58:29.580Z,3.08
2023-02-01T14:01:24.230Z,2.03
2023-02-01T14:03:59.043Z,3.10
2023-02-01T14:06:28.895Z,2.20
2023-02-01T14:09:13.376Z,2.90
2023-02-01T14:12:06.184Z,2.42
2023-02-01T14:14:36.085Z,2.13
2023-02-01T14:17:02.806Z,2.58
2023-02-01T14:19:35.028Z,5.35
2023-02-01T14:22:24.983Z,2.63
2023-02-01T14:24:57.850Z,3.30
2023-02-01T14:27:28.081Z,2.40
2023-02-01T14:30:00.418Z,2.33
2023-02-01T14:32:34.804Z,2.30
2023-02-01T14:35:07.323Z,3.28
2023-02-01T14:37:37.700Z,2.40
2023-02-01T14:40:25.703Z,2.28
2023-02-01T14:42:53.754Z,3.03
2023-02-01T14:45:21.429Z,2.72
2023-02-01T14:47:54.557Z,1.80
2023-02-01T14:50:33.907Z,3.58
2023-02-01T14:53:18.611Z,3.20
2023-02-01T14:55:50.309Z,2.35
2023-02-01T14:58:20.347Z,3.38
2023-02-01T15:00:54.341Z,2.17
2023-02-01T15:04:02.575Z,2.17
2023-02-01T15:06:41.566Z,3.47
2023-02-01T15:09:21.781Z,2.88
2023-02-01T15:12:00.813Z,2.30
2023-02-01T15:14:29.462Z,2.00
2023-02-01T15:16:56.639Z,2.00
2023-02-01T15:19:27.053Z,2.15
2023-02-01T15:21:56.477Z,2.50
2023-02-01T15:24:31.780Z,2.80
2023-02-01T15:27:06.207Z,2.58
2023-02-01T15:29:34.237Z,2.40
2023-02-01T15:32:01.910Z,2.53
2023-02-01T15:34:50.992Z,2.00
2023-02-01T15:37:23.172Z,2.75
2023-02-01T15:40:11.105Z,2.50
2023-02-01T15:42:50.129Z,2.17
2023-02-01T15:45:22.317Z,2.45
2023-02-01T15:47:51.232Z,2.95
2023-02-01T15:50:22.322Z,2.28
2023-02-01T15:52:53.024Z,2.90
2023-02-01T15:55:36.937Z,2.20
2023-02-01T15:58:20.141Z,2.22
2023-02-01T16:00:57.122Z,2.22
2023-02-01T16:03:28.755Z,3.10
2023-02-01T16:05:58.604Z,3.05
2023-02-01T16:08:28.254Z,2.55
2023-02-01T16:11:09.986Z,2.20
2023-02-01T16:13:37.127Z,2.30
2023-02-01T16:16:08.960Z,2.78
2023-02-01T16:18:36.568Z,2.47
2023-02-01T16:21:03.416Z,2.58
2023-02-01T16:23:31.532Z,2.05
2023-02-01T16:25:59.230Z,2.35
2023-02-01T16:28:27.014Z,2.88
2023-02-01T16:30:53.918Z,2.85
2023-02-01T16:35:51.107Z,3.00
2023-02-01T16:38:22.353Z,2.05
2023-02-01T16:40:50.537Z,2.70
2023-02-01T16:43:22.757Z,2.88
2023-02-01T16:45:51.433Z,2.35
2023-02-01T16:48:47.781Z,3.35
2023-02-01T16:51:17.706Z,2.58
2023-02-01T16:53:54.196Z,2.35
2023-02-01T16:56:29.669Z,3.70
2023-02-01T16:58:57.246Z,3.13
2023-02-01T17:01:24.783Z,2.28
2023-02-01T17:03:52.486Z,3.63
2023-02-01T17:06:22.602Z,2.95
2023-02-01T17:08:53.403Z,3.10
2023-02-01T17:11:20.583Z,3.75
2023-02-01T17:13:47.541Z,3.80
2023-02-01T17:16:24.131Z,3.60
2023-02-01T17:18:59.371Z,3.07
2023-02-01T17:21:28.631Z,3.72
2023-02-01T17:23:55.730Z,4.35
2023-02-01T17:26:22.578Z,4.05
2023-02-01T17:28:49.332Z,2.65
2023-02-01T17:31:17.194Z,3.53
2023-02-01T17:33:44.769Z,2.65
2023-02-01T17:36:16.890Z,2.92
2023-02-01T17:38:50.912Z,3.30
2023-02-01T17:41:20.950Z,4.25
2023-02-01T17:46:18.549Z,2.80
2023-02-01T17:48:45.352Z,3.78
2023-02-01T17:51:17.699Z,4.35
2023-02-01T17:53:45.986Z,2.90
2023-02-01T17:56:22.230Z,3.45
2023-02-01T17:58:49.133Z,3.58
2023-02-01T18:01:24.191Z,3.67
2023-02-01T18:03:51.948Z,3.35
2023-02-01T18:06:21.986Z,4.63
2023-02-01T18:08:48.956Z,2.97
2023-02-01T18:13:43.873Z,2.92
2023-02-01T18:16:22.440Z,2.90
2023-02-01T18:18:49.781Z,2.97
2023-02-01T18:21:22.227Z,4.72
2023-02-01T18:23:49.767Z,3.40
2023-02-01T18:26:18.432Z,2.95
2023-02-01T18:28:45.625Z,2.92
2023-02-01T18:33:55.159Z,3.35
2023-02-01T18:36:22.096Z,3.40
2023-02-01T18:38:49.251Z,2.80
2023-02-01T18:41:21.621Z,2.67
2023-02-01T18:43:48.828Z,4.38
2023-02-01T18:46:16.411Z,2.55
2023-02-01T18:48:43.904Z,3.70
2023-02-01T18:51:13.190Z,3.65
2023-02-01T18:53:40.486Z,2.45
2023-02-01T18:56:07.816Z,2.72
2023-02-01T18:58:34.535Z,3.13
2023-02-01T19:01:11.809Z,2.38
2023-02-01T19:03:43.716Z,2.55
2023-02-01T19:06:18.089Z,2.53
2023-02-01T19:08:48.070Z,3.25
2023-02-01T19:11:14.926Z,2.55
2023-02-01T19:13:41.768Z,2.40
2023-02-01T19:16:13.605Z,2.47
2023-02-01T19:18:40.734Z,2.58
2023-02-01T19:21:12.389Z,2.55
2023-02-01T19:23:40.221Z,3.10
2023-02-01T19:26:14.727Z,3.13
2023-02-01T19:28:44.527Z,2.78
2023-02-01T19:31:11.358Z,2.80
2023-02-01T19:36:09.213Z,2.50
2023-02-01T19:38:36.312Z,2.35
2023-02-01T19:43:29.923Z,2.65
2023-02-01T19:45:57.361Z,2.95
2023-02-01T19:48:24.581Z,2.75
2023-02-01T19:50:51.368Z,4.13
2023-02-01T19:53:19.503Z,4.40
2023-02-01T19:55:47.041Z,3.88
2023-02-01T19:58:14.467Z,2.60
2023-02-01T20:00:40.882Z,2.95
2023-02-01T20:03:07.765Z,3.28
2023-02-01T20:05:34.600Z,3.85
2023-02-01T20:08:01.481Z,3.63
2023-02-01T20:10:28.422Z,3.25
2023-02-01T20:12:55.228Z,2.85
2023-02-01T20:15:24.679Z,4.38
2023-02-01T20:17:51.685Z,4.78
2023-02-01T20:20:18.560Z,3.60
2023-02-01T20:22:45.410Z,2.78
2023-02-01T20:25:12.239Z,3.65
2023-02-01T20:27:39.877Z,4.03
2023-02-01T20:30:07.226Z,2.92
2023-02-01T20:32:34.128Z,3.28
2023-02-01T20:35:00.820Z,3.30
2023-02-01T20:37:27.721Z,3.70
2023-02-01T20:39:54.512Z,3.65
2023-02-01T20:42:21.332Z,2.80
2023-02-01T20:44:48.157Z,3.25
2023-02-01T20:47:14.812Z,3.25
2023-02-01T20:49:41.595Z,3.90
2023-02-01T20:52:08.344Z,3.53
2023-02-01T20:54:35.172Z,3.00
2023-02-01T20:57:02.323Z,3.78
2023-02-01T21:01:55.882Z,2.60
2023-02-01T21:04:27.335Z,5.07
2023-02-01T21:06:55.461Z,3.58
2023-02-01T21:09:23.461Z,3.28
2023-02-01T21:11:52.227Z,3.42
2023-02-01T21:14:20.246Z,3.72
2023-02-01T21:16:48.161Z,3.80
2023-02-01T21:19:16.329Z,3.28
2023-02-01T21:21:43.375Z,3.03
2023-02-01T21:26:42.771Z,2.38
2023-02-01T21:29:43.474Z,2.63
2023-02-01T21:32:10.235Z,2.65
2023-02-01T21:34:36.955Z,2.90
2023-02-01T21:37:03.820Z,2.47
2023-02-01T21:39:30.703Z,2.50
2023-02-01T21:42:17.379Z,2.97
2023-02-01T21:44:47.285Z,2.20
2023-02-01T21:47:19.128Z,2.97
2023-02-01T21:49:48.953Z,2.85
2023-02-01T21:52:17.671Z,2.90
2023-02-01T21:54:45.282Z,2.63
2023-02-01T21:57:12.531Z,3.65
2023-02-01T21:59:41.403Z,3.08
2023-02-01T22:02:17.117Z,2.53
2023-02-01T22:04:45.773Z,2.85
2023-02-01T22:07:13.016Z,2.95
2023-02-01T22:09:41.844Z,2.80
2023-02-01T22:12:14.247Z,3.00
2023-02-01T22:14:44.828Z,2.53
2023-02-01T22:17:15.143Z,2.15
2023-02-01T22:19:42.657Z,2.95
2023-02-01T22:22:11.862Z,2.75
2023-02-01T22:24:39.338Z,2.50
2023-02-01T22:27:14.382Z,2.50
2023-02-01T22:29:42.955Z,3.78
2023-02-01T22:32:13.236Z,3.00
2023-02-01T22:34:41.055Z,2.42
2023-02-01T22:37:08.122Z,2.58
2023-02-01T22:39:35.877Z,2.67
2023-02-01T22:42:04.367Z,2.70
2023-02-01T22:44:31.891Z,2.50
2023-02-01T22:46:59.121Z,4.05
2023-02-01T22:51:52.564Z,2.67
2023-02-01T22:54:23.676Z,2.80
2023-02-01T22:56:51.051Z,2.00
2023-02-01T22:59:18.108Z,3.17
2023-02-01T23:04:13.719Z,2.78
2023-02-01T23:06:41.337Z,2.25
2023-02-01T23:09:14.786Z,1.92
2023-02-01T23:11:42.249Z,2.65
2023-02-01T23:14:11.269Z,2.15
2023-02-01T23:16:39.055Z,2.38
2023-02-01T23:19:06.271Z,3.83
2023-02-01T23:21:34.088Z,3.22
2023-02-01T23:24:02.281Z,2.97
2023-02-01T23:26:31.258Z,2.20
2023-02-01T23:28:58.963Z,2.20
2023-02-01T23:31:31.627Z,2.92
2023-02-01T23:34:00.387Z,2.67
2023-02-01T23:36:28.374Z,1.88
2023-02-01T23:38:55.750Z,2.30
2023-02-01T23:41:23.656Z,2.22
2023-02-01T23:43:59.569Z,2.10
2023-02-01T23:46:37.427Z,2.85
2023-02-01T23:49:05.950Z,2.80
2023-02-01T23:51:33.424Z,3.53
2023-02-01T23:54:00.609Z,2.40
2023-02-01T23:56:31.169Z,2.40
2023-02-01T23:58:58.086Z,2.30
